Time;durP1;ratioP1;P1;durP2;ratioP2;P2;SDS_P1;SDS_P2;PMS_P1;PMS_P2;Temp;Humidity;BMP_temperature;BMP_pressure;BME280_temperature;BME280_humidity;BME280_pressure;Samples;Min_cycle;Max_cycle;Signal;HPM_P1;HPM_P2
2022/05/25 10:45:53;;;;;;;0.90;0.90;;;24.10;64.30;;;;;;5106029;27;20314;-66
2022/05/25 10:48:54;;;;;;;1.95;0.70;;;23.70;67.90;;;;;;5104279;28;20294;-66
2022/05/25 10:51:33;;;;;;;0.85;0.77;;;23.20;68.00;;;;;;5098756;28;20040;-66
2022/05/25 10:57:19;;;;;;;0.57;0.57;;;22.30;71.10;;;;;;5091063;28;20123;-66
2022/05/25 11:00:06;;;;;;;0.50;0.50;;;21.90;71.90;;;;;;5088323;28;20079;-66
2022/05/25 11:02:34;;;;;;;1.10;0.85;;;21.60;73.10;;;;;;5089739;28;20044;-66
2022/05/25 11:05:09;;;;;;;1.10;0.75;;;21.40;75.00;;;;;;5091166;28;20123;-66
2022/05/25 11:07:38;;;;;;;1.27;0.93;;;21.20;75.90;;;;;;5086818;28;20080;-66
2022/05/25 11:10:42;;;;;;;2.42;0.90;;;21.00;76.90;;;;;;5087652;28;20055;-66
2022/05/25 11:13:14;;;;;;;0.93;0.82;;;20.90;77.40;;;;;;5086822;28;20044;-66
2022/05/25 11:15:44;;;;;;;1.13;0.77;;;20.80;79.40;;;;;;5087483;28;20048;-66
2022/05/25 11:18:33;;;;;;;1.00;0.90;;;20.60;80.70;;;;;;5087701;28;20045;-66
2022/05/25 11:21:43;;;;;;;0.90;0.80;;;20.60;81.90;;;;;;5086807;28;20667;-66
2022/05/25 11:24:37;;;;;;;1.30;1.10;;;20.50;82.80;;;;;;5068959;28;20129;-65
2022/05/25 11:27:29;;;;;;;2.00;1.25;;;20.30;85.00;;;;;;5096315;28;20083;-67
2022/05/25 11:30:23;;;;;;;1.15;0.80;;;20.30;86.20;;;;;;5085715;28;20131;-65
2022/05/25 11:33:13;;;;;;;1.23;0.90;;;20.20;88.00;;;;;;5086745;28;20477;-64
2022/05/25 11:35:48;;;;;;;1.48;0.90;;;20.20;89.70;;;;;;5086988;28;20048;-65
2022/05/25 11:38:35;;;;;;;0.65;0.65;;;20.10;90.50;;;;;;5087133;28;20675;-65
2022/05/25 11:41:19;;;;;;;0.80;0.80;;;20.10;90.90;;;;;;5084694;28;20044;-64
2022/05/25 11:44:04;;;;;;;1.30;0.73;;;20.10;91.50;;;;;;5097762;28;20056;-64
2022/05/25 11:46:38;;;;;;;0.80;0.70;;;20.00;92.10;;;;;;5087299;28;20052;-64
2022/05/25 11:49:28;;;;;;;1.00;0.90;;;20.00;92.70;;;;;;5086135;28;20044;-64
2022/05/25 11:52:10;;;;;;;1.60;1.00;;;20.00;92.90;;;;;;5086432;28;20044;-64
2022/05/25 11:54:57;;;;;;;1.08;0.70;;;20.00;93.50;;;;;;5085446;28;20051;-64
2022/05/25 11:57:33;;;;;;;1.48;0.80;;;19.90;93.80;;;;;;5071294;28;20502;-64
2022/05/25 12:00:08;;;;;;;0.90;0.90;;;19.90;94.30;;;;;;5080831;28;20079;-64
2022/05/25 12:03:03;;;;;;;1.05;0.90;;;19.90;94.80;;;;;;5082254;28;20079;-64
2022/05/25 12:05:47;;;;;;;1.67;0.70;;;19.90;94.90;;;;;;5086953;28;20051;-64
2022/05/25 12:08:30;;;;;;;0.90;0.90;;;19.90;95.60;;;;;;5093546;28;20083;-64
2022/05/25 12:11:13;;;;;;;1.17;0.82;;;19.90;95.70;;;;;;5107222;28;20052;-64
2022/05/25 12:13:53;;;;;;;1.30;0.90;;;19.90;96.00;;;;;;5092715;28;20044;-64
2022/05/25 12:16:21;;;;;;;1.45;1.00;;;19.90;96.20;;;;;;5073116;28;20131;-64
2022/05/25 12:19:01;;;;;;;2.70;0.90;;;19.90;96.70;;;;;;5079144;28;20075;-63
2022/05/25 12:21:34;;;;;;;1.52;1.23;;;19.80;96.80;;;;;;5096594;28;20375;-64
2022/05/25 12:24:29;;;;;;;3.85;1.60;;;19.80;96.90;;;;;;5075027;28;20048;-65
2022/05/25 12:26:56;;;;;;;2.95;1.80;;;19.80;96.10;;;;;;5071338;28;20056;-64
2022/05/25 12:29:24;;;;;;;2.22;1.58;;;19.80;96.50;;;;;;5072672;28;20056;-64
2022/05/25 12:31:56;;;;;;;2.60;1.70;;;19.80;96.60;;;;;;5072366;28;20079;-64
2022/05/25 12:34:34;;;;;;;2.03;1.48;;;19.80;96.60;;;;;;5080453;28;20101;-64
2022/05/25 12:37:02;;;;;;;1.45;1.33;;;19.80;96.50;;;;;;5090561;28;20048;-64
2022/05/25 12:39:42;;;;;;;2.58;1.38;;;19.80;96.80;;;;;;5088973;28;20048;-64
2022/05/25 12:42:28;;;;;;;1.92;1.30;;;19.80;96.60;;;;;;5081104;28;20059;-64
2022/05/25 12:50:40;;;;;;;;;;;19.80;96.90;;;;;;5090817;28;20051;-64
2022/05/25 12:53:52;;;;;;;3.63;1.30;;;19.80;96.20;;;;;;5090055;28;19920;-64
2022/05/25 12:56:18;;;;;;;5.43;1.60;;;19.80;96.90;;;;;;5054134;28;20135;-64
2022/05/25 12:58:55;;;;;;;;;;;19.80;97.50;;;;;;5090808;28;20476;-64
2022/05/25 13:01:27;;;;;;;1.52;1.20;;;19.80;96.50;;;;;;5088393;28;19981;-64
2022/05/25 13:03:58;;;;;;;2.08;1.40;;;19.80;97.30;;;;;;5079513;28;20453;-64
2022/05/25 13:06:27;;;;;;;1.75;1.30;;;19.80;97.50;;;;;;5082247;28;20055;-64
2022/05/25 13:08:53;;;;;;;2.20;1.27;;;19.80;97.60;;;;;;5103806;28;20165;-64
2022/05/25 13:11:41;;;;;;;2.67;1.23;;;19.70;97.70;;;;;;5089324;28;20105;-64
2022/05/25 13:14:22;;;;;;;1.52;1.10;;;19.80;97.50;;;;;;5087122;28;20040;-64
2022/05/25 13:16:54;;;;;;;1.67;1.30;;;19.70;97.80;;;;;;5084571;28;20044;-64
2022/05/25 13:19:41;;;;;;;1.63;1.30;;;19.80;98.00;;;;;;5087290;28;20448;-65
2022/05/25 13:22:21;;;;;;;1.10;1.00;;;19.80;97.90;;;;;;5089537;28;20538;-64
2022/05/25 13:25:06;;;;;;;1.40;1.30;;;19.80;98.00;;;;;;5088352;28;20048;-64
2022/05/25 13:28:13;;;;;;;1.90;1.30;;;19.80;98.00;;;;;;5087025;28;20055;-64
2022/05/25 13:30:38;;;;;;;1.48;1.10;;;19.80;98.10;;;;;;5088523;28;20071;-64
2022/05/25 13:33:04;;;;;;;;;;;19.80;98.40;;;;;;5084642;28;20520;-64
2022/05/25 13:35:51;;;;;;;2.33;1.40;;;19.80;98.00;;;;;;5088868;28;19953;-64
2022/05/25 13:38:34;;;;;;;2.58;1.42;;;19.80;98.50;;;;;;5086692;28;20049;-64
2022/05/25 13:41:20;;;;;;;1.55;1.20;;;19.80;98.60;;;;;;5079091;28;20483;-64
2022/05/25 13:43:55;;;;;;;1.70;0.90;;;19.80;98.70;;;;;;5089129;28;20052;-64
2022/05/25 13:46:42;;;;;;;1.30;1.00;;;19.80;98.80;;;;;;5080521;28;20044;-64
2022/05/25 13:49:31;;;;;;;1.65;1.15;;;19.80;98.70;;;;;;5084247;28;20051;-64
2022/05/25 13:52:28;;;;;;;2.65;1.20;;;19.80;98.70;;;;;;5073666;28;20513;-64
2022/05/25 13:55:05;;;;;;;1.73;0.90;;;19.80;98.80;;;;;;5078796;28;20095;-65
2022/05/25 13:57:33;;;;;;;3.13;1.00;;;19.80;98.00;;;;;;5075246;28;20044;-64
2022/05/25 14:00:22;;;;;;;2.08;1.00;;;19.70;97.20;;;;;;5082835;28;20539;-65
2022/05/25 14:03:00;;;;;;;1.73;0.93;;;19.70;96.20;;;;;;5089239;28;20130;-65
2022/05/25 14:05:30;;;;;;;1.80;0.90;;;19.70;96.50;;;;;;5086906;28;20040;-64
2022/05/25 14:08:13;;;;;;;5.53;1.20;;;19.70;96.50;;;;;;5077811;28;20054;-71
2022/05/25 14:10:57;;;;;;;2.25;0.90;;;19.70;96.30;;;;;;5083317;28;20130;-64
2022/05/25 14:13:28;;;;;;;1.48;0.90;;;19.70;96.60;;;;;;5075874;28;20036;-65
2022/05/25 14:16:19;;;;;;;2.42;0.90;;;19.70;96.60;;;;;;5083435;28;20038;-66
2022/05/25 14:18:58;;;;;;;1.15;0.90;;;19.70;96.50;;;;;;5089136;28;20126;-64
2022/05/25 14:21:39;;;;;;;1.67;0.90;;;19.70;96.80;;;;;;5090517;28;20054;-64
2022/05/25 14:24:22;;;;;;;1.60;0.90;;;19.70;96.90;;;;;;5089431;28;20079;-64
2022/05/25 14:27:24;;;;;;;1.50;1.00;;;19.70;96.90;;;;;;5080261;28;20036;-64
2022/05/25 14:29:50;;;;;;;1.27;0.77;;;19.70;96.80;;;;;;5066268;28;20060;-64
2022/05/25 14:32:22;;;;;;;3.20;0.90;;;19.70;97.10;;;;;;5078679;28;20059;-64
2022/05/25 14:34:50;;;;;;;1.10;0.70;;;19.70;97.20;;;;;;5087797;28;20051;-64
2022/05/25 14:37:18;;;;;;;1.80;0.80;;;19.70;97.30;;;;;;5087392;28;20048;-64
2022/05/25 14:39:45;;;;;;;0.70;0.70;;;19.70;97.40;;;;;;5088371;28;20501;-66
2022/05/25 14:42:16;;;;;;;1.08;0.98;;;19.70;97.50;;;;;;5089267;28;20079;-64
2022/05/25 14:44:46;;;;;;;1.67;1.13;;;19.70;97.50;;;;;;5089961;28;20052;-65
2022/05/25 14:47:15;;;;;;;0.80;0.80;;;19.70;97.50;;;;;;5086235;28;20055;-66
2022/05/25 14:50:06;;;;;;;0.70;0.70;;;19.70;97.50;;;;;;5083572;28;20056;-67
2022/05/25 14:52:32;;;;;;;0.90;0.90;;;19.70;97.60;;;;;;5088730;28;20452;-66
2022/05/25 14:55:13;;;;;;;;;;;19.70;98.00;;;;;;5082636;28;20040;-65
2022/05/25 14:57:41;;;;;;;1.30;0.93;;;19.70;97.20;;;;;;5089377;28;20393;-65
2022/05/25 15:00:07;;;;;;;1.52;0.93;;;19.70;97.70;;;;;;5089197;28;20036;-66
2022/05/25 15:02:37;;;;;;;2.53;0.90;;;19.70;97.70;;;;;;5086643;28;20047;-66
2022/05/25 15:05:22;;;;;;;1.02;0.70;;;19.70;97.80;;;;;;5088694;28;20048;-66
2022/05/25 15:07:54;;;;;;;1.55;0.93;;;19.70;97.70;;;;;;5077193;28;20048;-67
2022/05/25 15:10:20;;;;;;;0.73;0.73;;;19.70;97.80;;;;;;5075188;28;20112;-66
2022/05/25 15:12:45;;;;;;;;;;;19.70;97.90;;;;;;5077403;28;20135;-66
2022/05/25 15:20:53;;;;;;;1.15;0.75;;;19.70;97.90;;;;;;5078183;28;20063;-66
2022/05/25 15:23:18;;;;;;;;;;;19.70;98.00;;;;;;5083232;28;20044;-66
2022/05/25 15:25:47;;;;;;;1.52;0.73;;;19.70;97.50;;;;;;5073664;28;19970;-65
2022/05/25 15:28:19;;;;;;;2.03;0.70;;;19.70;97.70;;;;;;5074626;28;20506;-66
2022/05/25 15:30:50;;;;;;;1.08;0.70;;;19.70;97.50;;;;;;5089013;28;20074;-65
2022/05/25 15:33:21;;;;;;;2.05;0.68;;;19.70;97.50;;;;;;5093533;28;20054;-65
2022/05/25 15:36:10;;;;;;;1.80;0.82;;;19.70;97.40;;;;;;5093951;28;20044;-65
2022/05/25 15:38:36;;;;;;;1.70;0.70;;;19.70;97.30;;;;;;5089399;28;20036;-65
2022/05/25 15:41:03;;;;;;;2.55;1.00;;;19.70;97.50;;;;;;5076878;28;20086;-65
2022/05/25 15:43:29;;;;;;;2.38;0.70;;;19.70;97.60;;;;;;5092264;28;20043;-65
2022/05/25 15:45:57;;;;;;;0.70;0.70;;;19.70;97.70;;;;;;5093514;28;20048;-65
2022/05/25 15:48:25;;;;;;;2.55;0.63;;;19.70;97.60;;;;;;5089651;28;20127;-65
2022/05/25 15:50:52;;;;;;;0.65;0.65;;;19.70;97.50;;;;;;5075371;28;20048;-65
2022/05/25 15:53:22;;;;;;;1.23;0.70;;;19.70;97.50;;;;;;5072991;28;20070;-65
2022/05/25 15:55:49;;;;;;;1.48;0.63;;;19.70;97.20;;;;;;5071661;28;20041;-65
2022/05/25 15:58:16;;;;;;;1.95;0.68;;;19.70;97.10;;;;;;5080649;28;20084;-65
2022/05/25 16:00:45;;;;;;;3.03;0.93;;;19.70;97.10;;;;;;5073500;28;20055;-65
2022/05/25 16:03:17;;;;;;;1.27;0.60;;;19.70;97.00;;;;;;5076531;28;20051;-65
2022/05/25 16:05:45;;;;;;;0.50;0.50;;;19.70;96.70;;;;;;5093255;28;20048;-65
2022/05/25 16:10:55;;;;;;;1.30;0.55;;;19.70;96.70;;;;;;5075751;28;20489;-65
2022/05/25 16:13:20;;;;;;;;;;;19.70;96.80;;;;;;5090235;28;20044;-65
2022/05/25 16:15:46;;;;;;;0.90;0.60;;;19.70;96.20;;;;;;5081307;28;19920;-65
2022/05/25 16:18:12;;;;;;;;;;;19.70;96.80;;;;;;5098979;28;20534;-65
2022/05/25 16:20:38;;;;;;;0.68;0.68;;;19.70;96.10;;;;;;5093075;28;19920;-65
2022/05/25 16:23:05;;;;;;;1.05;0.70;;;19.70;96.70;;;;;;5093223;28;20105;-65
2022/05/25 16:25:31;;;;;;;1.10;0.60;;;19.70;96.80;;;;;;5070366;28;20090;-65
2022/05/25 16:27:57;;;;;;;1.20;0.90;;;19.70;96.80;;;;;;5071553;28;20402;-65
2022/05/25 16:30:23;;;;;;;;;;;19.70;96.70;;;;;;5071814;28;20055;-65
2022/05/25 16:32:49;;;;;;;2.25;0.80;;;19.70;96.40;;;;;;5071894;28;20369;-65
2022/05/25 16:35:15;;;;;;;0.80;0.80;;;19.70;96.80;;;;;;5077131;28;20044;-65
2022/05/25 16:37:42;;;;;;;2.65;1.00;;;19.70;96.80;;;;;;5087276;28;20048;-65
2022/05/25 16:40:09;;;;;;;1.40;0.80;;;19.70;96.80;;;;;;5086778;28;20040;-65
2022/05/25 16:42:37;;;;;;;0.73;0.73;;;19.70;96.70;;;;;;5083628;28;20052;-65
2022/05/25 16:45:09;;;;;;;2.00;1.00;;;19.70;96.80;;;;;;5085317;28;20546;-65
2022/05/25 16:47:36;;;;;;;1.08;0.90;;;19.70;96.80;;;;;;5086151;28;20501;-65
2022/05/25 16:50:04;;;;;;;0.95;0.90;;;19.70;96.80;;;;;;5074756;28;20080;-65
2022/05/25 16:52:30;;;;;;;1.13;1.02;;;19.70;96.80;;;;;;5072791;28;20462;-65
2022/05/25 16:54:57;;;;;;;1.15;1.00;;;19.70;96.90;;;;;;5070290;28;20076;-65
2022/05/25 16:57:23;;;;;;;1.05;0.90;;;19.70;96.90;;;;;;5076769;28;20097;-65
2022/05/25 16:59:50;;;;;;;;;;;19.70;96.90;;;;;;5081031;28;20044;-65
2022/05/25 17:02:17;;;;;;;1.90;1.10;;;19.70;96.60;;;;;;5083607;28;19920;-65
2022/05/25 17:04:42;;;;;;;1.00;0.90;;;19.60;96.90;;;;;;5086234;28;20059;-65
2022/05/25 17:07:08;;;;;;;;;;;19.70;97.00;;;;;;5087009;28;20489;-65
2022/05/25 17:09:34;;;;;;;1.83;0.88;;;19.70;96.70;;;;;;5087331;28;19931;-65
2022/05/25 17:11:59;;;;;;;;;;;19.70;97.00;;;;;;5084136;28;20110;-65
2022/05/25 17:14:26;;;;;;;1.52;0.70;;;19.70;96.80;;;;;;5075271;28;19927;-64
2022/05/25 17:16:53;;;;;;;0.68;0.68;;;19.70;97.00;;;;;;5084891;28;20040;-65
2022/05/25 17:22:04;;;;;;;0.63;0.60;;;19.70;97.10;;;;;;5088842;28;20109;-65
2022/05/25 17:24:31;;;;;;;1.05;0.85;;;19.70;97.10;;;;;;5073457;28;20621;-65
2022/05/25 17:26:57;;;;;;;1.02;0.90;;;19.70;97.20;;;;;;5076611;28;20040;-65
2022/05/25 17:29:24;;;;;;;1.67;1.00;;;19.60;97.20;;;;;;5073738;28;20375;-65
2022/05/25 17:31:52;;;;;;;1.13;0.80;;;19.70;97.30;;;;;;5071101;28;20063;-64
2022/05/25 17:34:19;;;;;;;0.73;0.73;;;19.70;97.20;;;;;;5069020;28;20036;-64
2022/05/25 17:42:14;;;;;;;0.63;0.60;;;19.60;97.30;;;;;;5069719;28;20045;-64
2022/05/25 17:44:40;;;;;;;;;;;19.60;97.30;;;;;;5070329;28;20060;-64
2022/05/25 17:47:07;;;;;;;0.85;0.80;;;19.60;97.10;;;;;;5070343;28;19970;-64
2022/05/25 17:49:35;;;;;;;3.22;0.80;;;19.60;97.30;;;;;;5069695;28;20669;-64
2022/05/25 17:52:02;;;;;;;0.80;0.70;;;19.60;97.30;;;;;;5071035;28;20048;-65
2022/05/25 17:54:28;;;;;;;1.95;0.70;;;19.60;97.20;;;;;;5075840;28;20045;-64
2022/05/25 17:56:55;;;;;;;0.88;0.68;;;19.60;97.30;;;;;;5078619;28;20413;-64
2022/05/25 17:59:23;;;;;;;0.75;0.73;;;19.70;97.30;;;;;;5080731;28;20055;-65
2022/05/25 18:01:50;;;;;;;0.73;0.60;;;19.70;97.20;;;;;;5089855;28;20389;-66
2022/05/25 18:04:20;;;;;;;2.05;0.93;;;19.70;97.20;;;;;;5071131;28;20055;-65
2022/05/25 18:06:49;;;;;;;1.05;0.63;;;19.60;97.00;;;;;;5070634;28;20055;-65
2022/05/25 18:09:17;;;;;;;0.68;0.68;;;19.60;97.10;;;;;;5068354;28;20048;-65
2022/05/25 18:11:46;;;;;;;1.60;0.80;;;19.70;97.20;;;;;;5070077;28;20052;-65
2022/05/25 18:14:17;;;;;;;2.20;1.25;;;19.70;97.10;;;;;;5070247;28;20724;-65
2022/05/25 18:16:45;;;;;;;1.27;0.70;;;19.60;97.00;;;;;;5077535;28;20047;-65
2022/05/25 18:19:16;;;;;;;0.60;0.60;;;19.60;96.90;;;;;;5074498;28;20056;-65
2022/05/25 18:21:47;;;;;;;0.60;0.60;;;19.60;96.90;;;;;;5081720;28;20048;-65
2022/05/25 18:24:14;;;;;;;1.33;0.70;;;19.60;97.00;;;;;;5068461;28;20044;-64
2022/05/25 18:26:40;;;;;;;2.33;0.70;;;19.60;96.90;;;;;;5071817;28;20055;-64
2022/05/25 18:29:06;;;;;;;;;;;19.60;96.90;;;;;;5089998;28;20380;-65
2022/05/25 18:31:32;;;;;;;1.23;0.75;;;19.60;96.70;;;;;;5069960;28;19985;-65
2022/05/25 18:33:58;;;;;;;1.75;0.95;;;19.60;97.00;;;;;;5069485;28;20171;-65
2022/05/25 18:36:36;;;;;;;1.08;0.50;;;19.60;97.00;;;;;;5068358;28;20053;-65
2022/05/25 18:39:03;;;;;;;1.77;0.90;;;19.60;96.90;;;;;;5067727;28;20874;-65
2022/05/25 18:41:29;;;;;;;1.90;0.75;;;19.60;97.00;;;;;;5068386;28;20052;-65
2022/05/25 18:43:56;;;;;;;;;;;19.60;97.10;;;;;;5074877;28;20505;-65
2022/05/25 18:46:22;;;;;;;0.57;0.57;;;19.60;96.90;;;;;;5087480;28;19927;-65
2022/05/25 18:48:49;;;;;;;1.67;0.70;;;19.60;97.10;;;;;;5086207;28;20051;-65
2022/05/25 18:51:16;;;;;;;1.00;0.70;;;19.60;97.20;;;;;;5086018;28;20044;-65
2022/05/25 18:53:43;;;;;;;1.05;0.80;;;19.60;97.30;;;;;;5083885;28;20052;-65
2022/05/25 18:56:09;;;;;;;0.90;0.68;;;19.60;97.30;;;;;;5087653;28;20043;-65
2022/05/25 18:58:35;;;;;;;0.50;0.50;;;19.60;97.40;;;;;;5085667;28;20174;-65
2022/05/25 19:01:01;;;;;;;;;;;19.60;97.50;;;;;;5084333;28;20119;-65
2022/05/25 19:03:28;;;;;;;0.80;0.80;;;19.60;97.40;;;;;;5085504;28;20418;-65
2022/05/25 19:05:54;;;;;;;0.40;0.40;;;19.60;97.60;;;;;;5083519;28;20309;-65
2022/05/25 19:08:19;;;;;;;;;;;19.60;97.60;;;;;;5090877;28;20122;-65
2022/05/25 19:10:46;;;;;;;1.25;0.77;;;19.60;97.60;;;;;;5090197;28;19994;-65
2022/05/25 19:13:11;;;;;;;;;;;19.60;97.70;;;;;;5093490;28;20131;-65
2022/05/25 19:15:38;;;;;;;0.63;0.50;;;19.60;97.70;;;;;;5090896;28;20006;-65
2022/05/25 19:18:09;;;;;;;2.13;0.82;;;19.50;97.70;;;;;;5088495;28;20173;-63
2022/05/25 19:20:35;;;;;;;1.00;0.63;;;19.50;97.70;;;;;;5091410;28;20111;-65
2022/05/25 19:23:09;;;;;;;0.50;0.50;;;19.50;97.80;;;;;;5079951;28;20077;-65
2022/05/25 19:25:40;;;;;;;1.92;0.77;;;19.50;97.90;;;;;;5091728;28;20465;-66
2022/05/25 19:28:05;;;;;;;0.85;0.55;;;19.50;98.00;;;;;;5076839;28;20086;-65
2022/05/25 19:30:32;;;;;;;;;;;19.50;98.00;;;;;;5079515;28;20082;-65
2022/05/25 19:32:59;;;;;;;0.50;0.50;;;19.50;98.00;;;;;;5084053;28;20035;-65
2022/05/25 19:35:25;;;;;;;1.10;0.60;;;19.50;98.10;;;;;;5084415;28;20051;-66
2022/05/25 19:37:57;;;;;;;1.70;0.65;;;19.50;98.20;;;;;;5086558;28;20086;-66
2022/05/25 19:40:29;;;;;;;1.75;0.75;;;19.50;98.20;;;;;;5079281;28;20044;-66
2022/05/25 19:43:18;;;;;;;0.60;0.60;;;19.50;98.30;;;;;;5083732;28;20044;-65
2022/05/25 19:45:45;;;;;;;0.52;0.52;;;19.50;98.30;;;;;;5085307;28;20121;-67
2022/05/25 19:48:11;;;;;;;1.85;0.70;;;19.50;98.40;;;;;;5084810;28;20059;-66
2022/05/25 19:50:48;;;;;;;;;;;19.50;98.50;;;;;;5080316;28;20044;-66
2022/05/25 19:53:16;;;;;;;3.05;1.20;;;19.50;98.50;;;;;;5084706;28;19960;-65
2022/05/25 19:55:42;;;;;;;0.45;0.45;;;19.50;98.60;;;;;;5084180;28;20120;-65
2022/05/25 19:58:08;;;;;;;;;;;19.50;98.60;;;;;;5081400;28;20607;-64
2022/05/25 20:00:34;;;;;;;0.77;0.70;;;19.50;98.70;;;;;;5081817;28;19928;-65
2022/05/25 20:03:00;;;;;;;;;;;19.50;98.70;;;;;;5085217;28;20044;-65
2022/05/25 20:05:26;;;;;;;0.85;0.80;;;19.50;98.80;;;;;;5085337;28;19920;-65
2022/05/25 20:07:52;;;;;;;0.63;0.63;;;19.50;98.80;;;;;;5084349;28;20068;-65
2022/05/25 20:10:19;;;;;;;;;;;19.50;98.90;;;;;;5083457;28;20100;-65
2022/05/25 20:12:45;;;;;;;;;;;19.50;99.00;;;;;;5082890;28;20034;-66
2022/05/25 20:15:12;;;;;;;1.33;0.60;;;19.50;99.10;;;;;;5080624;28;20014;-65
2022/05/25 20:17:38;;;;;;;0.70;0.68;;;19.50;99.00;;;;;;5081561;28;20589;-65
2022/05/25 20:20:05;;;;;;;0.77;0.73;;;19.50;99.10;;;;;;5081493;28;20049;-65
2022/05/25 20:22:35;;;;;;;0.70;0.40;;;19.50;99.20;;;;;;5075748;28;20036;-65
2022/05/25 20:25:02;;;;;;;0.70;0.63;;;19.50;99.30;;;;;;5074708;28;20044;-65
2022/05/25 20:27:28;;;;;;;1.38;0.50;;;19.50;99.40;;;;;;5080515;28;20062;-65
2022/05/25 20:29:56;;;;;;;1.15;0.47;;;19.50;99.40;;;;;;5083462;28;20050;-65
2022/05/25 20:32:23;;;;;;;0.63;0.50;;;19.50;99.50;;;;;;5084727;28;20055;-65
2022/05/25 20:34:50;;;;;;;0.40;0.40;;;19.50;99.60;;;;;;5084679;28;20082;-65
2022/05/25 20:37:16;;;;;;;0.40;0.40;;;19.50;99.70;;;;;;5085472;28;20090;-65
2022/05/25 20:39:43;;;;;;;1.17;0.50;;;19.50;99.70;;;;;;5080890;28;20127;-65
2022/05/25 20:42:09;;;;;;;0.47;0.40;;;19.40;99.80;;;;;;5076628;28;20083;-66
2022/05/25 20:44:36;;;;;;;0.73;0.60;;;19.50;99.90;;;;;;5078124;28;20154;-65
2022/05/25 20:47:02;;;;;;;2.05;0.50;;;19.50;99.90;;;;;;5078026;28;20543;-65
2022/05/25 20:49:28;;;;;;;0.30;0.30;;;19.50;99.90;;;;;;5073772;28;20058;-65
2022/05/25 20:51:54;;;;;;;;;;;19.50;99.90;;;;;;5077912;28;20468;-65
2022/05/25 20:54:19;;;;;;;0.50;0.50;;;19.50;99.90;;;;;;5076018;28;19924;-65
2022/05/25 20:56:45;;;;;;;;;;;19.50;99.90;;;;;;5079036;28;20560;-65
2022/05/25 20:59:11;;;;;;;0.60;0.60;;;19.50;99.90;;;;;;5075734;28;19924;-66
2022/05/25 21:01:36;;;;;;;;;;;19.40;99.90;;;;;;5077531;28;20032;-65
2022/05/25 21:04:02;;;;;;;1.13;0.50;;;19.40;99.90;;;;;;5077294;28;19927;-65
2022/05/25 21:06:29;;;;;;;;;;;19.40;99.90;;;;;;5074109;28;20045;-66
2022/05/25 21:08:55;;;;;;;1.35;0.60;;;19.40;99.90;;;;;;5076675;28;19924;-65
2022/05/25 21:11:21;;;;;;;1.70;0.40;;;19.50;99.90;;;;;;5069249;28;20044;-65
2022/05/25 21:13:47;;;;;;;;;;;19.40;99.90;;;;;;5071321;28;20051;-64
2022/05/25 21:16:13;;;;;;;0.85;0.50;;;19.40;99.90;;;;;;5079811;28;20388;-64
2022/05/25 21:18:39;;;;;;;0.88;0.60;;;19.50;99.90;;;;;;5090972;28;20051;-65
2022/05/25 21:21:05;;;;;;;;;;;19.50;99.90;;;;;;5069230;28;20044;-64
2022/05/25 21:23:32;;;;;;;0.90;0.50;;;19.40;99.90;;;;;;5071704;28;19924;-64
2022/05/25 21:25:58;;;;;;;0.55;0.55;;;19.40;99.90;;;;;;5067544;28;20044;-65
2022/05/25 21:28:23;;;;;;;;;;;19.40;99.90;;;;;;5073659;28;20524;-65
2022/05/25 21:33:36;;;;;;;0.47;0.47;;;19.40;99.90;;;;;;5068468;28;20512;-65
2022/05/25 21:36:07;;;;;;;1.27;0.70;;;19.40;99.90;;;;;;5068477;28;20033;-64
2022/05/25 21:38:33;;;;;;;0.50;0.32;;;19.40;99.90;;;;;;5054602;28;20063;-64
2022/05/25 21:40:59;;;;;;;;;;;19.40;99.90;;;;;;5066712;28;20477;-64
2022/05/25 21:43:24;;;;;;;0.77;0.50;;;19.40;99.90;;;;;;5068642;28;20522;-64
2022/05/25 21:51:19;;;;;;;0.47;0.40;;;19.40;99.90;;;;;;5068119;28;20425;-64
2022/05/25 21:53:45;;;;;;;;;;;19.40;99.90;;;;;;5067586;28;20048;-64
2022/05/25 21:56:11;;;;;;;0.55;0.47;;;19.40;99.90;;;;;;5067514;28;20376;-64
2022/05/25 21:58:38;;;;;;;0.73;0.50;;;19.40;99.90;;;;;;5067712;28;20478;-64
2022/05/25 22:01:04;;;;;;;1.55;0.40;;;19.40;99.90;;;;;;5070586;28;20043;-64
2022/05/25 22:03:30;;;;;;;0.60;0.60;;;19.40;99.90;;;;;;5068097;28;20048;-64
2022/05/25 22:05:55;;;;;;;;;;;19.40;99.90;;;;;;5070693;28;20131;-64
2022/05/25 22:08:22;;;;;;;0.75;0.60;;;19.40;99.90;;;;;;5087591;28;19920;-65
2022/05/25 22:10:47;;;;;;;1.70;0.50;;;19.40;99.90;;;;;;5066019;28;20051;-64
2022/05/25 22:13:13;;;;;;;;;;;19.40;99.90;;;;;;5073029;28;20048;-64
2022/05/25 22:15:39;;;;;;;0.70;0.52;;;19.40;99.90;;;;;;5073173;28;19973;-64
2022/05/25 22:18:06;;;;;;;1.13;0.57;;;19.40;99.90;;;;;;5067890;28;20485;-64
2022/05/25 22:20:32;;;;;;;0.40;0.40;;;19.40;99.90;;;;;;5066915;28;20040;-64
2022/05/25 22:22:57;;;;;;;;;;;19.40;99.90;;;;;;5070839;28;20051;-64
2022/05/25 22:25:24;;;;;;;0.70;0.60;;;19.40;99.90;;;;;;5069428;28;19921;-64
2022/05/25 22:27:49;;;;;;;0.45;0.43;;;19.40;99.90;;;;;;5071715;28;20048;-64
2022/05/25 22:30:15;;;;;;;;;;;19.40;99.90;;;;;;5069856;28;20047;-64
2022/05/25 22:32:41;;;;;;;0.57;0.57;;;19.40;99.90;;;;;;5069932;28;19920;-64
2022/05/25 22:35:08;;;;;;;1.40;0.45;;;19.40;99.90;;;;;;5067654;28;20115;-65
2022/05/25 22:37:35;;;;;;;1.27;0.55;;;19.40;99.90;;;;;;5065538;28;20056;-64
2022/05/25 22:40:02;;;;;;;0.40;0.35;;;19.40;99.90;;;;;;5068108;28;20048;-64
2022/05/25 22:42:28;;;;;;;0.50;0.50;;;19.40;99.90;;;;;;5072727;28;20106;-64
2022/05/25 22:44:53;;;;;;;;;;;19.40;99.90;;;;;;5051367;28;20064;-64
2022/05/25 22:47:19;;;;;;;0.55;0.50;;;19.40;99.90;;;;;;5073782;28;20385;-64
2022/05/25 22:49:45;;;;;;;;;;;19.40;99.90;;;;;;5069040;28;20048;-64
2022/05/25 22:52:10;;;;;;;0.40;0.40;;;19.40;99.90;;;;;;5070477;28;20011;-64
2022/05/25 22:54:37;;;;;;;;;;;19.40;99.90;;;;;;5070568;28;20071;-65
2022/05/25 22:57:04;;;;;;;0.50;0.50;;;19.40;99.90;;;;;;5070932;28;19924;-64
2022/05/25 22:59:30;;;;;;;1.95;0.50;;;19.40;99.90;;;;;;5069649;28;20106;-64
2022/05/25 23:01:56;;;;;;;;;;;19.40;99.90;;;;;;5070180;28;20063;-64
2022/05/25 23:04:22;;;;;;;0.40;0.40;;;19.30;99.90;;;;;;5068944;28;19966;-64
2022/05/25 23:06:47;;;;;;;;;;;19.40;99.90;;;;;;5070503;28;20135;-64
2022/05/25 23:09:13;;;;;;;0.82;0.75;;;19.30;99.90;;;;;;5068723;28;20324;-64
2022/05/25 23:11:38;;;;;;;;;;;19.30;99.90;;;;;;5070827;28;20140;-65
2022/05/25 23:14:04;;;;;;;0.60;0.60;;;19.30;99.90;;;;;;5069809;28;20019;-64
2022/05/25 23:16:30;;;;;;;;;;;19.30;99.90;;;;;;5072493;28;20082;-64
2022/05/25 23:18:55;;;;;;;0.43;0.43;;;19.30;99.90;;;;;;5082571;28;19928;-65
2022/05/25 23:21:21;;;;;;;;;;;19.30;99.90;;;;;;5071962;28;20118;-64
2022/05/25 23:23:47;;;;;;;0.47;0.47;;;19.40;99.90;;;;;;5068932;28;19920;-64
2022/05/25 23:26:13;;;;;;;;;;;19.30;99.90;;;;;;5079626;28;20538;-64
2022/05/25 23:31:23;;;;;;;0.68;0.68;;;19.30;99.90;;;;;;5070766;28;20053;-64
2022/05/25 23:33:49;;;;;;;1.00;0.50;;;19.40;99.90;;;;;;5069885;28;20091;-64
2022/05/25 23:36:18;;;;;;;;;;;19.30;99.90;;;;;;5079832;28;20076;-64
2022/05/25 23:38:44;;;;;;;0.43;0.43;;;19.30;99.90;;;;;;5089138;28;20373;-64
2022/05/25 23:43:57;;;;;;;1.10;0.73;;;19.30;99.90;;;;;;5089650;28;19927;-64
2022/05/25 23:46:25;;;;;;;0.75;0.60;;;19.30;99.90;;;;;;5081404;28;20098;-64
2022/05/25 23:48:52;;;;;;;1.13;0.60;;;19.30;99.90;;;;;;5069456;28;20086;-64
2022/05/25 23:51:26;;;;;;;1.55;0.70;;;19.30;99.90;;;;;;5069807;28;20091;-65
2022/05/25 23:53:53;;;;;;;1.67;0.88;;;19.30;99.90;;;;;;5072430;28;20052;-64
2022/05/25 23:56:23;;;;;;;1.85;0.95;;;19.30;99.90;;;;;;5072749;28;20122;-64
2022/05/25 23:58:49;;;;;;;1.02;0.73;;;19.30;99.90;;;;;;5072785;28;20144;-64
